Arlington, New York
Current Conditions -  °F | °C
As of 6:53 PM on Monday 24 Nov 2014 (Local Time) from KPOU Reporting Station
Clear Clear  
Wind Chill: 67°   Ceiling: Unl
Heat Index: 67°   Visibility: 10mi
Dew Point: 53°   Wind: 14mph
Humidity: 61%   Direction: 200°SSW
Pressure: 29.62"   Gusts: 22mph
Location:  41.69°N, 73.89°W
Report Text: KPOU 242353Z 20012G19KT 10SM CLR 19/12 A2962 RMK AO2 SLP026 T01940117 10217 20194 51035
Loading
Personal Weather Stations






























Interactive Weather Map New forecast layout! Learn more

10-Day Weather Forecast

Advertisements
Track Severe Weather on mobile